Terminal Aerodrome Forecast
Issued by NWS

Home | Current Version | Previous Version | Text Only | Print | Product List | Glossary On
Versions: 1 2 3 4 5 6 7 8 9 10 11 12 13 14 15 16 17
000
FTUS43 KFGF 211738
TAFDVL
TAF
KDVL 211738Z 2118/2218 13010KT P6SM SCT070
     FM211900 12009KT P6SM VCTS SCT080CB
     FM212300 09009KT P6SM VCTS BKN070CB
     FM220300 07005KT P6SM SCT060
     FM220500 33004KT P6SM FEW060
     FM220700 25004KT P6SM FEW070
     FM221500 30015G23KT P6SM SCT050
     FM221700 30018KT P6SM FEW150=

USA.gov is the U.S. government's official web portal to all federal, state and local government web resources and services.